createdAt,value
2018-12-27T00:00:53.234Z,2.67
2018-12-27T00:03:21.533Z,2.66
2018-12-27T00:05:49.829Z,2.65
2018-12-27T00:08:18.209Z,2.63
2018-12-27T00:10:46.481Z,2.61
2018-12-27T00:13:14.781Z,2.58
2018-12-27T00:15:43.149Z,2.55
2018-12-27T00:18:11.515Z,2.51
2018-12-27T00:20:39.801Z,2.51
2018-12-27T00:23:08.177Z,2.50
2018-12-27T00:25:36.595Z,2.46
2018-12-27T00:28:04.956Z,2.47
2018-12-27T00:30:33.240Z,2.47
2018-12-27T00:33:03.266Z,2.44
2018-12-27T00:35:32.068Z,2.44
2018-12-27T00:38:00.365Z,2.42
2018-12-27T00:40:28.646Z,2.41
2018-12-27T00:42:56.962Z,2.38
2018-12-27T00:45:25.299Z,2.36
2018-12-27T00:47:53.570Z,2.31
2018-12-27T00:50:21.925Z,2.30
2018-12-27T00:52:50.204Z,2.29
2018-12-27T00:55:18.499Z,2.26
2018-12-27T00:57:46.803Z,2.24
2018-12-27T01:00:15.101Z,2.23
2018-12-27T01:02:43.417Z,2.22
2018-12-27T01:05:11.721Z,2.18
2018-12-27T01:07:40.000Z,2.15
2018-12-27T01:10:08.387Z,2.13
2018-12-27T01:12:36.680Z,2.08
2018-12-27T01:15:04.975Z,2.04
2018-12-27T01:17:33.288Z,2.02
2018-12-27T01:20:01.607Z,1.93
2018-12-27T01:22:29.892Z,1.92
2018-12-27T01:24:58.177Z,1.92
2018-12-27T01:27:26.483Z,1.93
2018-12-27T01:29:54.764Z,1.89
2018-12-27T01:32:23.060Z,1.86
2018-12-27T01:34:51.389Z,1.79
2018-12-27T01:37:19.723Z,1.78
2018-12-27T01:39:47.997Z,1.73
2018-12-27T01:42:16.384Z,1.70
2018-12-27T01:44:44.712Z,1.68
2018-12-27T01:47:13.003Z,1.68
2018-12-27T01:49:41.319Z,1.68
2018-12-27T01:52:09.609Z,1.65
2018-12-27T01:54:37.915Z,1.61
2018-12-27T01:57:06.224Z,1.58
2018-12-27T01:59:34.536Z,1.52
2018-12-27T02:02:02.845Z,1.47
2018-12-27T02:04:31.161Z,1.41
2018-12-27T02:06:59.446Z,1.41
2018-12-27T02:09:27.735Z,1.41
2018-12-27T02:11:56.043Z,1.41
2018-12-27T02:14:24.329Z,1.40
2018-12-27T02:16:52.619Z,1.37
2018-12-27T02:19:20.918Z,1.34
2018-12-27T02:21:49.215Z,1.33
2018-12-27T02:24:17.517Z,1.32
2018-12-27T02:26:45.827Z,1.31
2018-12-27T02:29:14.109Z,1.31
2018-12-27T02:31:42.405Z,1.29
2018-12-27T02:34:10.697Z,1.31
2018-12-27T02:36:39.012Z,1.26
2018-12-27T02:39:07.834Z,1.24
2018-12-27T02:41:36.254Z,1.21
2018-12-27T02:44:04.536Z,1.17
2018-12-27T02:46:32.827Z,1.16
2018-12-27T02:49:01.146Z,1.15
2018-12-27T02:51:29.421Z,1.17
2018-12-27T02:53:57.701Z,1.14
2018-12-27T02:56:26.024Z,1.12
2018-12-27T02:58:54.281Z,1.09
2018-12-27T03:01:22.573Z,1.10
2018-12-27T03:03:50.856Z,1.10
2018-12-27T03:06:19.132Z,1.07
2018-12-27T03:08:47.439Z,0.99
2018-12-27T03:11:15.759Z,1.01
2018-12-27T03:13:44.040Z,1.01
2018-12-27T03:16:12.314Z,1.00
2018-12-27T03:18:40.622Z,0.97
2018-12-27T03:21:08.931Z,0.91
2018-12-27T03:23:37.209Z,0.89
2018-12-27T03:26:05.505Z,0.89
2018-12-27T03:28:33.835Z,0.87
2018-12-27T03:31:02.141Z,0.87
2018-12-27T03:33:30.455Z,0.86
2018-12-27T03:35:58.744Z,0.81
2018-12-27T03:38:27.007Z,0.80
2018-12-27T03:40:55.323Z,0.81
2018-12-27T03:43:23.728Z,0.74
2018-12-27T03:45:52.008Z,0.68
2018-12-27T03:48:20.320Z,0.65
2018-12-27T03:50:48.737Z,0.66
2018-12-27T03:53:17.077Z,0.65
2018-12-27T03:55:45.393Z,0.62
2018-12-27T03:58:13.665Z,0.55
2018-12-27T04:00:41.948Z,0.56
2018-12-27T04:03:10.238Z,0.52
2018-12-27T04:05:38.534Z,0.52
2018-12-27T04:08:06.856Z,0.51
2018-12-27T04:10:35.235Z,0.50
2018-12-27T04:13:03.751Z,0.47
2018-12-27T04:15:32.121Z,0.37
2018-12-27T04:18:00.406Z,0.35
2018-12-27T04:20:28.782Z,0.38
2018-12-27T04:22:57.133Z,0.38
2018-12-27T04:25:26.079Z,0.38
2018-12-27T04:27:54.428Z,0.36
2018-12-27T04:30:23.436Z,0.33
2018-12-27T04:32:52.806Z,0.33
2018-12-27T04:35:21.522Z,0.32
2018-12-27T04:37:49.883Z,0.30
2018-12-27T04:40:18.187Z,0.31
2018-12-27T04:42:46.649Z,0.30
2018-12-27T04:45:14.943Z,0.31
2018-12-27T04:47:43.208Z,0.31
2018-12-27T04:50:11.569Z,0.32
2018-12-27T04:52:39.871Z,0.30
2018-12-27T04:55:08.171Z,0.30
2018-12-27T04:57:36.509Z,0.32
2018-12-27T05:00:05.210Z,0.32
2018-12-27T05:02:33.515Z,0.31
2018-12-27T05:05:01.799Z,0.32
2018-12-27T05:07:30.172Z,0.33
2018-12-27T05:09:58.471Z,0.32
2018-12-27T05:12:26.763Z,0.32
2018-12-27T05:14:55.118Z,0.31
2018-12-27T05:17:23.412Z,0.31
2018-12-27T05:19:51.703Z,0.30
2018-12-27T05:22:20.067Z,0.29
2018-12-27T05:24:48.364Z,0.28
2018-12-27T05:27:16.657Z,0.24
2018-12-27T05:29:44.917Z,0.17
2018-12-27T05:32:13.224Z,0.22
2018-12-27T05:34:41.515Z,0.23
2018-12-27T05:37:09.801Z,0.22
2018-12-27T05:39:38.102Z,0.20
2018-12-27T05:42:06.369Z,0.20
2018-12-27T05:44:34.727Z,0.16
2018-12-27T05:47:03.143Z,0.15
2018-12-27T05:49:31.418Z,0.12
2018-12-27T05:51:59.697Z,0.12
2018-12-27T05:54:28.010Z,0.12
2018-12-27T05:56:56.381Z,0.12
2018-12-27T05:59:24.655Z,0.09
2018-12-27T06:01:53.313Z,0.10
2018-12-27T06:04:21.724Z,0.12
2018-12-27T06:06:50.091Z,0.14
2018-12-27T06:09:18.373Z,0.13
2018-12-27T06:11:46.637Z,0.13
2018-12-27T06:14:14.912Z,0.14
2018-12-27T06:16:43.215Z,0.13
2018-12-27T06:19:11.482Z,0.10
2018-12-27T06:21:39.748Z,0.13
2018-12-27T06:24:08.049Z,0.15
2018-12-27T06:26:36.323Z,0.12
2018-12-27T06:29:04.659Z,0.11
2018-12-27T06:31:32.935Z,0.13
2018-12-27T06:34:01.231Z,0.16
2018-12-27T06:36:29.595Z,0.18
2018-12-27T06:38:57.872Z,0.18
2018-12-27T06:41:26.155Z,0.21
2018-12-27T06:43:54.429Z,0.21
2018-12-27T06:46:22.726Z,0.22
2018-12-27T06:48:51.015Z,0.23
2018-12-27T06:51:19.305Z,0.22
2018-12-27T06:53:47.675Z,0.22
2018-12-27T06:56:15.943Z,0.26
2018-12-27T06:58:44.201Z,0.30
2018-12-27T07:01:12.499Z,0.31
2018-12-27T07:03:40.764Z,0.32
2018-12-27T07:06:09.076Z,0.34
2018-12-27T07:08:37.468Z,0.37
2018-12-27T07:11:05.747Z,0.39
2018-12-27T07:13:34.029Z,0.43
2018-12-27T07:16:02.396Z,0.43
2018-12-27T07:18:30.679Z,0.44
2018-12-27T07:20:58.967Z,0.46
2018-12-27T07:23:27.245Z,0.46
2018-12-27T07:25:55.509Z,0.47
2018-12-27T07:28:23.807Z,0.48
2018-12-27T07:30:52.084Z,0.51
2018-12-27T07:33:20.367Z,0.53
2018-12-27T07:35:48.728Z,0.54
2018-12-27T07:38:17.020Z,0.56
2018-12-27T07:40:45.390Z,0.58
2018-12-27T07:43:13.657Z,0.58
2018-12-27T07:45:41.955Z,0.59
2018-12-27T07:48:10.309Z,0.62
2018-12-27T07:50:38.583Z,0.63
2018-12-27T07:53:06.959Z,0.66
2018-12-27T07:55:35.227Z,0.67
2018-12-27T07:58:03.508Z,0.68
2018-12-27T08:00:31.792Z,0.71
2018-12-27T08:03:00.066Z,0.72
2018-12-27T08:05:28.332Z,0.76
2018-12-27T08:07:56.624Z,0.76
2018-12-27T08:10:24.903Z,0.79
2018-12-27T08:12:53.187Z,0.81
2018-12-27T08:15:21.520Z,0.84
2018-12-27T08:17:49.799Z,0.87
2018-12-27T08:20:18.069Z,0.88
2018-12-27T08:22:46.357Z,0.91
2018-12-27T08:25:14.624Z,0.93
2018-12-27T08:27:42.991Z,0.95
2018-12-27T08:30:11.353Z,0.99
2018-12-27T08:32:39.643Z,0.99
2018-12-27T08:35:11.602Z,1.04
2018-12-27T08:37:38.388Z,1.07
2018-12-27T08:40:06.758Z,1.10
2018-12-27T08:42:35.036Z,1.08
2018-12-27T08:45:03.599Z,1.10
2018-12-27T08:47:31.900Z,1.12
2018-12-27T08:50:00.180Z,1.13
2018-12-27T08:52:28.456Z,1.14
2018-12-27T08:54:56.732Z,1.16
2018-12-27T08:57:24.997Z,1.19
2018-12-27T08:59:53.303Z,1.23
2018-12-27T09:02:21.562Z,1.25
2018-12-27T09:04:49.863Z,1.22
2018-12-27T09:07:18.167Z,1.25
2018-12-27T09:09:46.433Z,1.28
2018-12-27T09:12:14.723Z,1.32
2018-12-27T09:14:43.005Z,1.36
2018-12-27T09:17:11.277Z,1.40
2018-12-27T09:19:39.563Z,1.44
2018-12-27T09:22:07.877Z,1.50
2018-12-27T09:24:36.156Z,1.51
2018-12-27T09:27:04.444Z,1.56
2018-12-27T09:29:32.732Z,1.60
2018-12-27T09:32:01.549Z,1.58
2018-12-27T09:34:29.907Z,1.65
2018-12-27T09:36:58.283Z,1.67
2018-12-27T09:39:26.756Z,1.82
2018-12-27T09:41:55.028Z,1.84
2018-12-27T09:44:23.330Z,1.87
2018-12-27T09:46:51.600Z,1.82
2018-12-27T09:49:19.887Z,1.84
2018-12-27T09:51:48.191Z,1.87
2018-12-27T09:54:16.485Z,1.86
2018-12-27T09:56:44.759Z,1.86
2018-12-27T09:59:13.064Z,1.89
2018-12-27T10:01:41.360Z,1.90
2018-12-27T10:04:09.653Z,1.91
2018-12-27T10:06:37.963Z,1.94
2018-12-27T10:09:07.225Z,1.96
2018-12-27T10:11:35.499Z,2.13
2018-12-27T10:14:03.957Z,2.20
2018-12-27T10:16:32.227Z,2.16
2018-12-27T10:19:00.515Z,2.16
2018-12-27T10:21:28.819Z,2.36
2018-12-27T10:23:57.108Z,2.45
2018-12-27T10:26:25.412Z,2.41
2018-12-27T10:28:57.344Z,2.29
2018-12-27T10:31:25.768Z,2.38
2018-12-27T10:33:54.053Z,2.34
2018-12-27T10:36:22.353Z,2.29
2018-12-27T10:38:50.636Z,2.27
2018-12-27T10:41:18.945Z,2.39
2018-12-27T10:43:47.242Z,2.56
2018-12-27T10:46:15.524Z,2.57
2018-12-27T10:48:43.808Z,2.61
2018-12-27T10:51:12.111Z,2.73
2018-12-27T10:53:40.399Z,2.78
2018-12-27T10:56:08.767Z,2.88
2018-12-27T10:58:37.059Z,2.95
2018-12-27T11:01:05.367Z,3.04
2018-12-27T11:03:33.695Z,3.05
2018-12-27T11:06:02.285Z,3.15
2018-12-27T11:08:30.577Z,3.21
2018-12-27T11:10:58.864Z,3.30
2018-12-27T11:13:27.155Z,3.29
2018-12-27T11:15:55.454Z,3.33
2018-12-27T11:18:23.744Z,3.32
2018-12-27T11:20:52.070Z,3.38
2018-12-27T11:23:20.396Z,3.42
2018-12-27T11:25:48.680Z,3.35
2018-12-27T11:28:17.036Z,3.29
2018-12-27T11:30:45.353Z,3.40
2018-12-27T11:33:13.659Z,3.48
2018-12-27T11:35:41.984Z,3.44
2018-12-27T11:38:10.282Z,3.47
2018-12-27T11:40:38.569Z,3.45
2018-12-27T11:43:06.896Z,3.50
2018-12-27T11:45:35.202Z,3.48
2018-12-27T11:49:08.743Z,3.52
2018-12-27T11:51:37.232Z,3.55
2018-12-27T11:54:05.531Z,3.55
2018-12-27T11:56:38.352Z,3.61
2018-12-27T11:59:06.758Z,3.62
2018-12-27T12:01:35.149Z,3.70
2018-12-27T12:04:03.637Z,3.65
2018-12-27T12:06:32.132Z,3.60
2018-12-27T12:09:00.497Z,3.69
2018-12-27T12:11:28.799Z,3.74
2018-12-27T12:13:57.225Z,3.76
2018-12-27T12:16:25.528Z,3.78
2018-12-27T12:18:53.817Z,3.76
2018-12-27T12:21:22.109Z,3.80
2018-12-27T12:23:50.595Z,3.78
2018-12-27T12:26:18.962Z,3.80
2018-12-27T12:28:47.377Z,3.87
2018-12-27T12:31:15.747Z,3.86
2018-12-27T12:33:44.127Z,3.90
2018-12-27T12:36:12.504Z,3.94
2018-12-27T12:38:41.214Z,4.05
2018-12-27T12:41:09.589Z,4.12
2018-12-27T12:43:38.116Z,4.12
2018-12-27T12:46:06.390Z,4.19
2018-12-27T12:48:34.680Z,4.24
2018-12-27T12:51:03.032Z,4.26
2018-12-27T12:53:32.146Z,4.29
2018-12-27T12:56:00.604Z,4.31
2018-12-27T12:58:28.897Z,4.32
2018-12-27T13:00:57.180Z,4.34
2018-12-27T13:03:25.588Z,4.35
2018-12-27T13:05:53.897Z,4.36
2018-12-27T13:08:22.236Z,4.34
2018-12-27T13:10:50.539Z,4.35
2018-12-27T13:13:18.945Z,4.37
2018-12-27T13:15:47.214Z,4.39
2018-12-27T13:18:15.597Z,4.41
2018-12-27T13:20:44.052Z,4.43
2018-12-27T13:23:12.906Z,4.41
2018-12-27T13:25:41.281Z,4.41
2018-12-27T13:28:09.603Z,4.44
2018-12-27T13:30:37.899Z,4.41
2018-12-27T13:33:06.214Z,4.42
2018-12-27T13:35:34.612Z,4.44
2018-12-27T13:38:02.923Z,4.45
2018-12-27T13:40:32.234Z,4.47
2018-12-27T13:43:01.751Z,4.46
2018-12-27T13:45:30.067Z,4.46
2018-12-27T13:47:58.396Z,4.45
2018-12-27T13:50:26.727Z,4.46
2018-12-27T13:52:55.008Z,4.46
2018-12-27T13:55:23.415Z,4.39
2018-12-27T13:57:51.728Z,4.44
2018-12-27T14:00:20.109Z,4.46
2018-12-27T14:02:48.406Z,4.46
2018-12-27T14:05:16.790Z,4.39
2018-12-27T14:07:45.095Z,4.46
2018-12-27T14:10:13.379Z,4.45
2018-12-27T14:12:41.669Z,4.50
2018-12-27T14:15:10.049Z,4.50
2018-12-27T14:17:38.354Z,4.47
2018-12-27T14:20:07.068Z,4.48
2018-12-27T14:22:35.344Z,4.46
2018-12-27T14:25:03.887Z,4.48
2018-12-27T14:27:32.177Z,4.45
2018-12-27T14:30:00.485Z,4.45
2018-12-27T14:32:28.789Z,4.46
2018-12-27T14:34:57.077Z,4.41
2018-12-27T14:37:25.381Z,4.41
2018-12-27T14:39:53.667Z,4.36
2018-12-27T14:42:21.975Z,4.38
2018-12-27T14:44:50.427Z,4.39
2018-12-27T14:47:18.825Z,4.34
2018-12-27T14:49:47.135Z,4.35
2018-12-27T14:52:15.426Z,4.34
2018-12-27T14:54:43.818Z,4.31
2018-12-27T14:57:12.124Z,4.31
2018-12-27T14:59:40.407Z,4.28
2018-12-27T15:02:08.701Z,4.25
2018-12-27T15:04:36.996Z,4.21
2018-12-27T15:07:05.295Z,4.19
2018-12-27T15:09:33.594Z,4.18
2018-12-27T15:12:02.158Z,4.14
2018-12-27T15:14:30.459Z,4.12
2018-12-27T15:16:58.755Z,4.09
2018-12-27T15:19:27.154Z,4.08
2018-12-27T15:21:55.448Z,4.06
2018-12-27T15:24:23.827Z,3.97
2018-12-27T15:26:52.205Z,3.97
2018-12-27T15:29:20.508Z,3.92
2018-12-27T15:31:48.887Z,3.88
2018-12-27T15:34:17.185Z,3.87
2018-12-27T15:36:45.571Z,3.83
2018-12-27T15:39:13.861Z,3.73
2018-12-27T15:41:42.153Z,3.60
2018-12-27T15:44:10.495Z,3.67
2018-12-27T15:46:39.044Z,3.62
2018-12-27T15:49:07.356Z,3.58
2018-12-27T15:51:35.759Z,3.50
2018-12-27T15:54:04.143Z,3.38
2018-12-27T15:56:32.544Z,3.34
2018-12-27T15:59:00.842Z,3.32
2018-12-27T16:01:29.143Z,3.32
2018-12-27T16:03:57.528Z,3.30
2018-12-27T16:06:25.825Z,3.21
2018-12-27T16:08:54.124Z,3.06
2018-12-27T16:11:22.489Z,3.03
2018-12-27T16:13:50.795Z,3.02
2018-12-27T16:16:19.183Z,3.01
2018-12-27T16:18:47.591Z,2.90
2018-12-27T16:21:15.903Z,2.84
2018-12-27T16:23:44.191Z,2.83
2018-12-27T16:26:12.580Z,2.75
2018-12-27T16:28:40.944Z,2.70
2018-12-27T16:31:09.415Z,2.69
2018-12-27T16:33:37.742Z,2.65
2018-12-27T16:36:06.045Z,2.58
2018-12-27T16:38:34.337Z,2.59
2018-12-27T16:41:02.788Z,2.46
2018-12-27T16:43:31.074Z,2.44
2018-12-27T16:45:59.345Z,2.47
2018-12-27T16:48:27.655Z,2.47
2018-12-27T16:50:55.961Z,2.47
2018-12-27T16:53:24.248Z,2.45
2018-12-27T16:55:52.560Z,2.35
2018-12-27T16:58:21.296Z,2.27
2018-12-27T17:00:49.603Z,2.31
2018-12-27T17:03:17.981Z,2.31
2018-12-27T17:05:46.391Z,2.28
2018-12-27T17:08:14.844Z,2.19
2018-12-27T17:10:43.241Z,2.16
2018-12-27T17:13:11.509Z,2.19
2018-12-27T17:15:39.814Z,2.14
2018-12-27T17:18:08.114Z,2.11
2018-12-27T17:20:36.429Z,2.19
2018-12-27T17:23:04.877Z,2.16
2018-12-27T17:25:33.174Z,2.17
2018-12-27T17:28:01.548Z,2.14
2018-12-27T17:30:29.841Z,2.13
2018-12-27T17:32:58.175Z,2.10
2018-12-27T17:35:26.562Z,2.07
2018-12-27T17:37:54.857Z,2.06
2018-12-27T17:40:23.144Z,2.02
2018-12-27T17:42:51.508Z,1.96
2018-12-27T17:45:19.885Z,1.97
2018-12-27T17:47:48.185Z,1.97
2018-12-27T17:50:16.520Z,1.89
2018-12-27T17:52:44.832Z,1.85
2018-12-27T17:55:13.197Z,1.88
2018-12-27T17:57:41.468Z,1.88
2018-12-27T18:00:09.888Z,1.83
2018-12-27T18:02:38.233Z,1.83
2018-12-27T18:05:06.711Z,1.83
2018-12-27T18:07:35.123Z,1.83
2018-12-27T18:10:03.523Z,1.77
2018-12-27T18:12:31.897Z,1.80
2018-12-27T18:15:02.507Z,1.79
2018-12-27T18:17:30.901Z,1.80
2018-12-27T18:19:59.340Z,1.78
2018-12-27T18:22:27.728Z,1.68
2018-12-27T18:24:56.037Z,1.75
2018-12-27T18:27:24.399Z,1.69
2018-12-27T18:29:52.756Z,1.71
2018-12-27T18:32:21.077Z,1.71
2018-12-27T18:34:49.480Z,1.70
2018-12-27T18:37:17.857Z,1.70
2018-12-27T18:39:46.154Z,1.67
2018-12-27T18:42:14.429Z,1.65
2018-12-27T18:44:42.749Z,1.63
2018-12-27T18:47:11.149Z,1.62
2018-12-27T18:49:39.461Z,1.61
2018-12-27T18:52:07.793Z,1.61
2018-12-27T18:54:36.205Z,1.56
2018-12-27T18:57:04.638Z,1.55
2018-12-27T18:59:32.928Z,1.55
2018-12-27T19:02:01.352Z,1.53
2018-12-27T19:04:29.746Z,1.53
2018-12-27T19:06:58.168Z,1.50
2018-12-27T19:09:26.522Z,1.46
2018-12-27T19:12:05.980Z,1.48
2018-12-27T19:14:35.318Z,1.46
2018-12-27T19:17:03.628Z,1.41
2018-12-27T19:19:32.041Z,1.40
2018-12-27T19:22:09.671Z,1.40
2018-12-27T19:24:37.968Z,1.38
2018-12-27T19:27:06.284Z,1.39
2018-12-27T19:29:34.690Z,1.36
2018-12-27T19:32:03.016Z,1.35
2018-12-27T19:34:31.314Z,1.36
2018-12-27T19:36:59.753Z,1.36
2018-12-27T19:39:28.063Z,1.32
2018-12-27T19:41:56.451Z,1.31
2018-12-27T19:44:24.793Z,1.29
2018-12-27T19:46:53.105Z,1.26
2018-12-27T19:49:21.412Z,1.25
2018-12-27T19:51:49.852Z,1.24
2018-12-27T19:54:18.253Z,1.26
2018-12-27T19:56:46.695Z,1.26
2018-12-27T19:59:15.068Z,1.29
2018-12-27T20:01:43.531Z,1.27
2018-12-27T20:04:11.944Z,1.27
2018-12-27T20:06:40.343Z,1.19
2018-12-27T20:09:08.861Z,1.24
2018-12-27T20:11:37.273Z,1.22
2018-12-27T20:14:05.586Z,1.20
2018-12-27T20:16:33.996Z,1.17
2018-12-27T20:19:02.315Z,1.18
2018-12-27T20:21:30.608Z,1.20
2018-12-27T20:23:58.922Z,1.19
2018-12-27T20:26:27.308Z,1.17
2018-12-27T20:28:55.690Z,1.15
2018-12-27T20:31:24.007Z,1.15
2018-12-27T20:33:52.301Z,1.17
2018-12-27T20:36:20.609Z,1.13
2018-12-27T20:38:49.484Z,1.13
2018-12-27T20:41:17.807Z,1.08
2018-12-27T20:43:46.134Z,1.01
2018-12-27T20:46:14.521Z,0.99
2018-12-27T20:48:42.826Z,1.03
2018-12-27T20:51:11.109Z,1.05
2018-12-27T20:53:39.484Z,1.03
2018-12-27T20:56:07.808Z,0.96
2018-12-27T20:58:36.187Z,0.98
2018-12-27T21:01:04.502Z,0.89
2018-12-27T21:03:32.807Z,0.87
2018-12-27T21:06:01.198Z,0.87
2018-12-27T21:08:29.504Z,0.80
2018-12-27T21:10:57.912Z,0.82
2018-12-27T21:13:26.223Z,0.81
2018-12-27T21:15:54.526Z,0.76
2018-12-27T21:18:22.859Z,0.70
2018-12-27T21:20:51.143Z,0.71
2018-12-27T21:23:19.435Z,0.67
2018-12-27T21:25:47.738Z,0.57
2018-12-27T21:28:16.043Z,0.62
2018-12-27T21:30:44.357Z,0.63
2018-12-27T21:33:12.756Z,0.64
2018-12-27T21:35:41.031Z,0.57
2018-12-27T21:38:09.328Z,0.52
2018-12-27T21:40:37.627Z,0.55
2018-12-27T21:43:05.919Z,0.53
2018-12-27T21:45:34.219Z,0.45
2018-12-27T21:48:02.541Z,0.46
2018-12-27T21:50:30.901Z,0.39
2018-12-27T21:52:59.206Z,0.38
2018-12-27T21:55:27.511Z,0.34
2018-12-27T21:57:55.813Z,0.36
2018-12-27T22:00:24.085Z,0.34
2018-12-27T22:02:52.374Z,0.25
2018-12-27T22:05:20.759Z,0.28
2018-12-27T22:07:49.045Z,0.26
2018-12-27T22:10:17.349Z,0.17
2018-12-27T22:12:45.636Z,0.21
2018-12-27T22:15:13.944Z,0.24
2018-12-27T22:17:42.246Z,0.22
2018-12-27T22:20:10.613Z,0.10
2018-12-27T22:22:38.897Z,0.16
2018-12-27T22:25:07.344Z,0.15
2018-12-27T22:27:35.702Z,0.17
2018-12-27T22:30:04.256Z,0.16
2018-12-27T22:32:32.566Z,0.13
2018-12-27T22:35:00.928Z,0.09
2018-12-27T22:37:29.204Z,0.12
2018-12-27T22:39:57.576Z,0.16
2018-12-27T22:42:25.945Z,0.10
2018-12-27T22:44:54.239Z,0.10
2018-12-27T22:47:22.536Z,0.10
2018-12-27T22:49:50.825Z,0.09
2018-12-27T22:52:19.136Z,0.01
2018-12-27T22:54:47.408Z,0.04
2018-12-27T22:57:15.708Z,0.06
2018-12-27T22:59:43.980Z,0.03
2018-12-27T23:02:12.379Z,0.02
2018-12-27T23:04:40.644Z,-0.05
2018-12-27T23:07:08.937Z,-0.12
2018-12-27T23:09:37.259Z,-0.08
2018-12-27T23:12:05.549Z,-0.11
2018-12-27T23:14:33.800Z,-0.10
2018-12-27T23:17:02.218Z,-0.14
2018-12-27T23:19:30.515Z,-0.14
2018-12-27T23:21:58.889Z,-0.20
2018-12-27T23:24:27.280Z,-0.16
2018-12-27T23:26:55.559Z,-0.18
2018-12-27T23:29:23.863Z,-0.16
2018-12-27T23:31:52.153Z,-0.17
2018-12-27T23:34:20.413Z,-0.17
2018-12-27T23:36:48.783Z,-0.21
2018-12-27T23:39:17.174Z,-0.22
2018-12-27T23:41:45.476Z,-0.26
2018-12-27T23:44:13.768Z,-0.34
2018-12-27T23:46:42.197Z,-0.31
2018-12-27T23:49:10.491Z,-0.32
2018-12-27T23:51:38.771Z,-0.34
2018-12-27T23:54:07.075Z,-0.42
2018-12-27T23:56:35.370Z,-0.40
2018-12-27T23:59:03.827Z,-0.36
